createdAt,value
2023-04-22T00:00:20.385Z,99949.34
2023-04-22T00:02:48.131Z,99942.94
2023-04-22T00:05:18.477Z,99950.03
2023-04-22T00:07:47.473Z,99945.97
2023-04-22T00:10:14.765Z,99953.28
2023-04-22T00:12:42.068Z,99948.88
2023-04-22T00:15:09.915Z,99936.97
2023-04-22T00:17:37.456Z,99956.06
2023-04-22T00:20:06.177Z,99960.09
2023-04-22T00:22:33.609Z,99957.06
2023-04-22T00:25:00.973Z,99948.97
2023-04-22T00:27:28.251Z,99945.94
2023-04-22T00:29:55.772Z,99946.47
2023-04-22T00:32:23.565Z,99936.13
2023-04-22T00:34:51.439Z,99940.25
2023-04-22T00:37:18.693Z,99942.97
2023-04-22T00:39:46.205Z,99940.59
2023-04-22T00:42:13.801Z,99931.22
2023-04-22T00:44:41.101Z,99941.34
2023-04-22T00:47:12.226Z,99926.94
2023-04-22T00:49:39.702Z,99943.47
2023-04-22T00:52:07.320Z,99943.47
2023-04-22T00:54:35.462Z,99942.66
2023-04-22T00:57:04.004Z,99940.28
2023-04-22T00:59:31.282Z,99931.69
2023-04-22T01:01:58.609Z,99944.16
2023-04-22T01:04:25.940Z,99945.16
2023-04-22T01:06:56.051Z,99941.16
2023-04-22T01:09:23.500Z,99934.81
2023-04-22T01:11:50.815Z,99942.31
2023-04-22T01:14:18.180Z,99931.75
2023-04-22T01:16:45.660Z,99934.97
2023-04-22T01:19:13.074Z,99935.56
2023-04-22T01:21:40.890Z,99936.47
2023-04-22T01:24:08.481Z,99936.28
2023-04-22T01:26:36.604Z,99935.81
2023-04-22T01:29:05.016Z,99945.19
2023-04-22T01:31:32.382Z,99953.25
2023-04-22T01:33:59.755Z,99948.34
2023-04-22T01:36:27.586Z,99954.00
2023-04-22T01:38:54.858Z,99953.72
2023-04-22T01:41:22.384Z,99951.69
2023-04-22T01:43:49.929Z,99954.94
2023-04-22T01:46:17.685Z,99952.94
2023-04-22T01:48:50.495Z,99958.97
2023-04-22T01:51:20.408Z,99940.09
2023-04-22T01:53:48.425Z,99954.84
2023-04-22T01:56:15.951Z,99942.06
2023-04-22T01:58:43.364Z,99947.69
2023-04-22T02:01:11.250Z,99947.63
2023-04-22T02:03:38.617Z,99938.19
2023-04-22T02:06:08.695Z,99945.59
2023-04-22T02:08:37.107Z,99949.19
2023-04-22T02:11:04.652Z,99949.88
2023-04-22T02:13:38.593Z,99949.19
2023-04-22T02:16:06.371Z,99949.41
2023-04-22T02:18:33.687Z,99952.75
2023-04-22T02:21:00.991Z,99953.78
2023-04-22T02:23:28.285Z,99947.50
2023-04-22T02:25:55.988Z,99934.78
2023-04-22T02:28:23.290Z,99941.88
2023-04-22T02:30:50.656Z,99938.59
2023-04-22T02:33:18.017Z,99936.34
2023-04-22T02:35:45.458Z,99942.50
2023-04-22T02:38:17.524Z,99942.59
2023-04-22T02:40:44.785Z,99937.81
2023-04-22T02:43:12.678Z,99933.63
2023-04-22T02:45:40.982Z,99945.59
2023-04-22T02:48:08.724Z,99938.50
2023-04-22T02:50:37.749Z,99942.47
2023-04-22T02:53:05.152Z,99933.06
2023-04-22T02:55:32.384Z,99945.06
2023-04-22T02:57:59.705Z,99942.88
2023-04-22T03:00:27.008Z,99944.94
2023-04-22T03:02:54.508Z,99942.78
2023-04-22T03:05:26.279Z,99946.50
2023-04-22T03:07:55.533Z,99930.44
2023-04-22T03:10:22.807Z,99950.31
2023-04-22T03:12:51.207Z,99952.53
2023-04-22T03:15:21.433Z,99924.16
2023-04-22T03:17:49.802Z,99943.22
2023-04-22T03:20:18.842Z,99930.00
2023-04-22T03:22:46.160Z,99944.16
2023-04-22T03:25:14.890Z,99953.34
2023-04-22T03:27:47.195Z,99939.78
2023-04-22T03:30:14.605Z,99956.03
2023-04-22T03:32:41.992Z,99959.53
2023-04-22T03:35:22.213Z,99960.78
2023-04-22T03:37:51.052Z,99965.53
2023-04-22T03:40:23.500Z,99954.66
2023-04-22T03:42:50.843Z,99964.09
2023-04-22T03:45:20.613Z,99946.88
2023-04-22T03:47:56.319Z,99962.31
2023-04-22T03:50:31.375Z,99956.66
2023-04-22T03:53:00.312Z,99960.94
2023-04-22T03:55:27.765Z,99969.94
2023-04-22T03:57:56.552Z,99965.66
2023-04-22T04:00:23.871Z,99971.97
2023-04-22T04:03:03.615Z,99962.69
2023-04-22T04:05:31.162Z,99966.56
2023-04-22T04:07:58.495Z,99970.03
2023-04-22T04:10:26.157Z,99970.53
2023-04-22T04:12:55.300Z,99990.09
2023-04-22T04:15:24.792Z,99990.22
2023-04-22T04:17:52.697Z,99983.84
2023-04-22T04:20:21.346Z,99972.25
2023-04-22T04:22:48.886Z,99985.16
2023-04-22T04:25:18.384Z,99992.78
2023-04-22T04:27:46.039Z,99998.69
2023-04-22T04:30:14.825Z,99996.69
2023-04-22T04:32:46.403Z,99996.16
2023-04-22T04:35:16.395Z,100008.56
2023-04-22T04:37:48.139Z,100005.31
2023-04-22T04:40:15.847Z,100002.28
2023-04-22T04:42:48.743Z,100018.75
2023-04-22T04:45:22.530Z,100009.81
2023-04-22T04:47:54.648Z,100018.75
2023-04-22T04:50:32.104Z,100018.53
2023-04-22T04:53:02.588Z,100012.59
2023-04-22T04:55:37.639Z,100013.47
2023-04-22T04:58:10.330Z,100018.88
2023-04-22T05:00:37.702Z,100016.91
2023-04-22T05:03:05.239Z,100017.16
2023-04-22T05:05:34.103Z,100008.16
2023-04-22T05:08:01.459Z,100015.63
2023-04-22T05:10:29.469Z,100025.00
2023-04-22T05:12:57.947Z,100024.44
2023-04-22T05:15:26.760Z,100028.25
2023-04-22T05:17:54.300Z,100025.41
2023-04-22T05:20:21.710Z,100029.47
2023-04-22T05:22:48.978Z,100019.03
2023-04-22T05:25:17.126Z,100025.09
2023-04-22T05:27:53.700Z,100017.00
2023-04-22T05:30:22.158Z,100023.31
2023-04-22T05:32:49.572Z,100023.31
2023-04-22T05:35:16.970Z,100017.69
2023-04-22T05:37:44.233Z,100020.34
2023-04-22T05:40:11.751Z,100019.38
2023-04-22T05:42:39.045Z,100026.09
2023-04-22T05:45:06.982Z,100016.09
2023-04-22T05:47:34.289Z,100018.50
2023-04-22T05:50:01.650Z,100015.03
2023-04-22T05:52:37.080Z,100010.22
2023-04-22T05:55:11.255Z,100018.28
2023-04-22T05:57:38.568Z,100015.13
2023-04-22T06:00:12.349Z,100017.75
2023-04-22T06:02:45.161Z,100031.25
2023-04-22T06:05:12.652Z,100018.28
2023-04-22T06:07:40.481Z,100020.09
2023-04-22T06:10:08.689Z,100025.72
2023-04-22T06:12:36.049Z,100024.28
2023-04-22T06:15:04.808Z,100025.44
2023-04-22T06:17:32.339Z,100029.59
2023-04-22T06:19:59.675Z,100025.59
2023-04-22T06:22:27.002Z,100035.72
2023-04-22T06:24:54.360Z,100035.94
2023-04-22T06:27:21.676Z,100036.22
2023-04-22T06:29:48.966Z,100039.00
2023-04-22T06:32:16.399Z,100030.88
2023-04-22T06:34:43.684Z,100035.50
2023-04-22T06:37:11.360Z,100032.84
2023-04-22T06:39:38.843Z,100034.34
2023-04-22T06:42:38.796Z,100031.47
2023-04-22T06:45:25.632Z,100037.22
2023-04-22T06:48:15.829Z,100039.03
2023-04-22T06:51:05.707Z,100032.47
2023-04-22T06:53:33.127Z,100031.66
2023-04-22T06:56:00.408Z,100035.75
2023-04-22T06:58:27.748Z,100042.50
2023-04-22T07:00:55.066Z,100039.53
2023-04-22T07:03:22.369Z,100038.00
2023-04-22T07:06:00.649Z,100040.00
2023-04-22T07:08:30.540Z,100043.03
2023-04-22T07:10:58.036Z,100040.81
2023-04-22T07:13:34.275Z,100057.69
2023-04-22T07:16:01.613Z,100046.84
2023-04-22T07:18:29.115Z,100056.06
2023-04-22T07:20:56.519Z,100049.47
2023-04-22T07:23:23.789Z,100053.50
2023-04-22T07:25:51.040Z,100052.00
2023-04-22T07:28:18.389Z,100057.59
2023-04-22T07:30:46.206Z,100049.09
2023-04-22T07:33:13.509Z,100054.84
2023-04-22T07:35:40.769Z,100059.13
2023-04-22T07:38:09.278Z,100042.16
2023-04-22T07:40:37.115Z,100051.41
2023-04-22T07:43:05.795Z,100057.81
2023-04-22T07:45:33.125Z,100057.19
2023-04-22T07:48:00.545Z,100062.78
2023-04-22T07:50:27.789Z,100057.69
2023-04-22T07:52:55.045Z,100051.25
2023-04-22T07:55:22.314Z,100048.28
2023-04-22T07:57:49.678Z,100037.44
2023-04-22T08:00:17.209Z,100057.38
2023-04-22T08:02:44.710Z,100038.28
2023-04-22T08:05:12.137Z,100053.19
2023-04-22T08:07:39.526Z,100054.34
2023-04-22T08:10:07.401Z,100051.28
2023-04-22T08:12:37.260Z,100047.34
2023-04-22T08:15:07.366Z,100046.16
2023-04-22T08:17:35.129Z,100055.56
2023-04-22T08:20:02.460Z,100054.00
2023-04-22T08:22:29.721Z,100055.25
2023-04-22T08:24:56.999Z,100055.69
2023-04-22T08:27:24.295Z,100054.09
2023-04-22T08:29:51.558Z,100060.34
2023-04-22T08:32:19.909Z,100056.06
2023-04-22T08:34:47.286Z,100050.97
2023-04-22T08:37:14.564Z,100054.91
2023-04-22T08:39:41.921Z,100055.66
2023-04-22T08:42:09.389Z,100049.44
2023-04-22T08:44:36.798Z,100058.00
2023-04-22T08:47:04.068Z,100058.38
2023-04-22T08:49:31.404Z,100059.56
2023-04-22T08:51:58.709Z,100050.94
2023-04-22T08:54:26.015Z,100055.56
2023-04-22T08:56:54.732Z,100055.53
2023-04-22T08:59:22.765Z,100053.97
2023-04-22T09:01:52.681Z,100048.50
2023-04-22T09:04:21.562Z,100055.38
2023-04-22T09:06:49.028Z,100048.50
2023-04-22T09:09:17.418Z,100046.81
2023-04-22T09:11:44.796Z,100050.31
2023-04-22T09:14:12.188Z,100044.56
2023-04-22T09:16:45.184Z,100053.78
2023-04-22T09:19:13.232Z,100045.22
2023-04-22T09:21:41.096Z,100053.75
2023-04-22T09:24:09.530Z,100037.72
2023-04-22T09:26:39.866Z,100044.19
2023-04-22T09:29:09.597Z,100037.09
2023-04-22T09:31:40.891Z,100042.97
2023-04-22T09:34:08.264Z,100039.91
2023-04-22T09:36:37.924Z,100037.84
2023-04-22T09:39:10.058Z,100039.06
2023-04-22T09:41:41.167Z,100036.97
2023-04-22T09:44:15.128Z,100030.44
2023-04-22T09:46:43.299Z,100038.94
2023-04-22T09:49:10.731Z,100031.97
2023-04-22T09:51:40.769Z,100016.69
2023-04-22T09:54:11.506Z,100028.03
2023-04-22T09:56:49.452Z,100029.22
2023-04-22T09:59:21.741Z,100025.13
2023-04-22T10:01:49.633Z,100034.56
2023-04-22T10:04:21.392Z,100020.38
2023-04-22T10:06:49.145Z,100004.56
2023-04-22T10:09:20.723Z,100013.91
2023-04-22T10:11:49.582Z,100018.09
2023-04-22T10:14:16.888Z,100013.47
2023-04-22T10:16:46.020Z,100008.09
2023-04-22T10:19:23.422Z,100008.38
2023-04-22T10:21:56.609Z,100014.00
2023-04-22T10:24:26.422Z,100000.84
2023-04-22T10:27:01.662Z,100002.41
2023-04-22T10:29:42.716Z,99999.72
2023-04-22T10:32:11.056Z,100005.88
2023-04-22T10:34:41.084Z,99992.03
2023-04-22T10:37:12.066Z,99995.19
2023-04-22T10:39:40.896Z,100004.31
2023-04-22T10:42:18.368Z,99999.88
2023-04-22T10:44:47.265Z,100002.66
2023-04-22T10:47:31.526Z,99990.19
2023-04-22T10:50:21.312Z,99988.19
2023-04-22T10:52:56.557Z,99996.09
2023-04-22T10:55:24.172Z,99997.06
2023-04-22T10:57:52.049Z,99993.94
2023-04-22T11:00:23.491Z,99992.81
2023-04-22T11:02:55.272Z,99990.59
2023-04-22T11:05:26.218Z,99984.13
2023-04-22T11:07:55.815Z,99988.25
2023-04-22T11:10:35.228Z,99982.38
2023-04-22T11:13:03.205Z,99985.13
2023-04-22T11:15:31.518Z,99987.47
2023-04-22T11:17:59.051Z,99989.13
2023-04-22T11:20:26.388Z,99984.38
2023-04-22T11:22:55.576Z,99975.84
2023-04-22T11:25:23.657Z,99974.38
2023-04-22T11:27:50.952Z,99981.34
2023-04-22T11:30:36.110Z,99979.78
2023-04-22T11:33:03.420Z,99977.25
2023-04-22T11:35:32.885Z,99973.84
2023-04-22T11:38:01.703Z,99977.25
2023-04-22T11:40:34.502Z,99975.44
2023-04-22T11:43:04.136Z,99976.38
2023-04-22T11:45:32.190Z,99974.13
2023-04-22T11:47:59.628Z,99983.81
2023-04-22T11:50:28.509Z,99973.28
2023-04-22T11:52:56.796Z,99967.78
2023-04-22T11:55:25.995Z,99966.63
2023-04-22T11:57:55.434Z,99950.38
2023-04-22T12:00:24.060Z,99960.38
2023-04-22T12:03:01.122Z,99963.22
2023-04-22T12:05:39.214Z,99951.00
2023-04-22T12:08:17.150Z,99962.19
2023-04-22T12:10:46.141Z,99962.28
2023-04-22T12:13:23.083Z,99955.63
2023-04-22T12:15:54.269Z,99957.09
2023-04-22T12:18:34.107Z,99958.38
2023-04-22T12:21:12.796Z,99955.56
2023-04-22T12:23:49.651Z,99941.81
2023-04-22T12:26:17.613Z,99943.81
2023-04-22T12:28:45.849Z,99948.25
2023-04-22T12:31:16.403Z,99945.31
2023-04-22T12:33:43.953Z,99941.47
2023-04-22T12:36:11.242Z,99930.41
2023-04-22T12:38:38.847Z,99936.69
2023-04-22T12:41:06.459Z,99937.06
2023-04-22T12:43:36.479Z,99937.97
2023-04-22T12:46:04.423Z,99933.78
2023-04-22T12:48:32.154Z,99925.91
2023-04-22T12:50:59.925Z,99923.56
2023-04-22T12:53:27.631Z,99919.13
2023-04-22T12:55:55.396Z,99916.25
2023-04-22T12:58:22.704Z,99913.25
2023-04-22T13:00:49.977Z,99914.28
2023-04-22T13:03:17.384Z,99916.50
2023-04-22T13:05:45.374Z,99905.03
2023-04-22T13:08:12.613Z,99904.69
2023-04-22T13:10:39.907Z,99905.75
2023-04-22T13:15:39.136Z,99900.50
2023-04-22T13:18:06.663Z,99893.91
2023-04-22T13:20:34.155Z,99901.09
2023-04-22T13:23:02.407Z,99908.84
2023-04-22T13:25:29.739Z,99901.72
2023-04-22T13:27:56.970Z,99896.47
2023-04-22T13:30:24.273Z,99892.25
2023-04-22T13:32:52.049Z,99898.97
2023-04-22T13:35:19.348Z,99899.28
2023-04-22T13:37:47.272Z,99894.69
2023-04-22T13:40:14.485Z,99897.47
2023-04-22T13:42:42.044Z,99873.97
2023-04-22T13:45:09.883Z,99891.03
2023-04-22T13:47:37.261Z,99881.00
2023-04-22T13:50:06.039Z,99895.09
2023-04-22T13:52:34.056Z,99897.03
2023-04-22T13:55:03.295Z,99902.00
2023-04-22T13:57:30.729Z,99906.56
2023-04-22T13:59:57.995Z,99899.50
2023-04-22T14:02:25.329Z,99890.84
2023-04-22T14:04:52.900Z,99898.47
2023-04-22T14:07:20.220Z,99898.69
2023-04-22T14:09:47.494Z,99884.00
2023-04-22T14:12:14.736Z,99881.81
2023-04-22T14:14:42.113Z,99891.91
2023-04-22T14:17:09.383Z,99879.81
2023-04-22T14:19:39.102Z,99888.16
2023-04-22T14:22:06.725Z,99886.19
2023-04-22T14:24:34.060Z,99880.09
2023-04-22T14:27:04.204Z,99887.81
2023-04-22T14:29:32.006Z,99884.91
2023-04-22T14:31:59.532Z,99870.56
2023-04-22T14:34:27.380Z,99880.78
2023-04-22T14:36:54.872Z,99889.19
2023-04-22T14:39:22.160Z,99882.63
2023-04-22T14:41:49.484Z,99863.34
2023-04-22T14:44:16.742Z,99877.66
2023-04-22T14:46:45.234Z,99886.91
2023-04-22T14:49:12.613Z,99887.31
2023-04-22T14:51:39.930Z,99877.47
2023-04-22T14:54:07.192Z,99871.50
2023-04-22T14:56:34.503Z,99870.63
2023-04-22T14:59:01.878Z,99878.91
2023-04-22T15:01:29.212Z,99872.63
2023-04-22T15:03:56.619Z,99873.47
2023-04-22T15:06:24.109Z,99871.06
2023-04-22T15:08:54.239Z,99868.19
2023-04-22T15:11:21.547Z,99860.13
2023-04-22T15:13:48.773Z,99864.13
2023-04-22T15:16:16.104Z,99873.97
2023-04-22T15:18:43.376Z,99855.50
2023-04-22T15:21:10.728Z,99863.13
2023-04-22T15:23:38.094Z,99866.97
2023-04-22T15:26:05.385Z,99863.66
2023-04-22T15:28:33.075Z,99870.44
2023-04-22T15:31:01.084Z,99873.22
2023-04-22T15:33:28.398Z,99870.66
2023-04-22T15:35:55.835Z,99865.13
2023-04-22T15:38:24.753Z,99867.47
2023-04-22T15:40:52.024Z,99857.47
2023-04-22T15:43:19.355Z,99857.22
2023-04-22T15:45:46.563Z,99859.69
2023-04-22T15:48:13.835Z,99862.63
2023-04-22T15:50:41.101Z,99861.06
2023-04-22T15:53:08.447Z,99864.13
2023-04-22T15:55:36.003Z,99863.88
2023-04-22T15:58:03.287Z,99862.56
2023-04-22T16:00:30.670Z,99859.06
2023-04-22T16:02:58.380Z,99860.31
2023-04-22T16:05:26.016Z,99855.44
2023-04-22T16:07:53.376Z,99846.66
2023-04-22T16:10:20.849Z,99847.16
2023-04-22T16:12:48.155Z,99845.44
2023-04-22T16:15:16.612Z,99845.66
2023-04-22T16:17:44.351Z,99849.22
2023-04-22T16:20:12.021Z,99845.94
2023-04-22T16:22:39.389Z,99836.59
2023-04-22T16:25:07.412Z,99845.50
2023-04-22T16:27:34.702Z,99845.16
2023-04-22T16:30:02.021Z,99843.03
2023-04-22T16:32:29.360Z,99839.81
2023-04-22T16:34:56.624Z,99845.38
2023-04-22T16:37:24.068Z,99836.72
2023-04-22T16:39:51.459Z,99843.97
2023-04-22T16:42:18.912Z,99846.13
2023-04-22T16:44:46.233Z,99853.00
2023-04-22T16:47:13.512Z,99853.13
2023-04-22T16:49:40.982Z,99855.16
2023-04-22T16:52:08.462Z,99849.31
2023-04-22T16:54:35.756Z,99841.50
2023-04-22T16:57:04.838Z,99844.75
2023-04-22T16:59:32.150Z,99849.91
2023-04-22T17:01:59.495Z,99838.63
2023-04-22T17:04:26.941Z,99834.78
2023-04-22T17:06:54.285Z,99848.03
2023-04-22T17:09:21.595Z,99846.09
2023-04-22T17:11:48.873Z,99850.78
2023-04-22T17:14:16.210Z,99844.19
2023-04-22T17:16:43.459Z,99844.19
2023-04-22T17:19:10.753Z,99843.38
2023-04-22T17:21:38.084Z,99845.72
2023-04-22T17:24:06.156Z,99846.50
2023-04-22T17:26:33.688Z,99852.28
2023-04-22T17:29:00.998Z,99853.44
2023-04-22T17:31:28.550Z,99854.59
2023-04-22T17:33:55.985Z,99856.47
2023-04-22T17:36:23.246Z,99848.59
2023-04-22T17:38:50.505Z,99856.72
2023-04-22T17:41:18.677Z,99858.25
2023-04-22T17:43:46.044Z,99853.50
2023-04-22T17:46:13.369Z,99860.13
2023-04-22T17:48:41.962Z,99863.53
2023-04-22T17:51:10.189Z,99863.16
2023-04-22T17:53:37.561Z,99856.06
2023-04-22T17:56:04.938Z,99858.69
2023-04-22T17:58:32.188Z,99862.91
2023-04-22T18:00:59.492Z,99870.66
2023-04-22T18:03:27.917Z,99866.25
2023-04-22T18:05:55.371Z,99868.59
2023-04-22T18:08:22.960Z,99854.06
2023-04-22T18:10:50.199Z,99871.59
2023-04-22T18:13:17.532Z,99880.91
2023-04-22T18:15:44.847Z,99886.63
2023-04-22T18:18:12.156Z,99889.28
2023-04-22T18:20:39.425Z,99891.97
2023-04-22T18:23:08.795Z,99881.81
2023-04-22T18:25:36.151Z,99877.13
2023-04-22T18:28:03.690Z,99894.97
2023-04-22T18:30:32.742Z,99894.91
2023-04-22T18:33:00.430Z,99901.84
2023-04-22T18:35:27.798Z,99901.75
2023-04-22T18:37:55.147Z,99892.31
2023-04-22T18:40:23.265Z,99903.94
2023-04-22T18:42:50.671Z,99905.78
2023-04-22T18:45:18.031Z,99904.44
2023-04-22T18:47:45.816Z,99913.78
2023-04-22T18:50:13.162Z,99899.75
2023-04-22T18:52:40.726Z,99912.97
2023-04-22T18:55:08.371Z,99914.56
2023-04-22T18:57:35.882Z,99914.84
2023-04-22T19:00:03.338Z,99913.38
2023-04-22T19:02:30.814Z,99917.72
2023-04-22T19:04:59.270Z,99900.72
2023-04-22T19:07:26.588Z,99913.13
2023-04-22T19:09:53.873Z,99913.31
2023-04-22T19:12:21.160Z,99899.63
2023-04-22T19:14:48.464Z,99900.81
2023-04-22T19:17:15.916Z,99906.44
2023-04-22T19:19:44.350Z,99911.25
2023-04-22T19:22:12.494Z,99913.19
2023-04-22T19:24:39.900Z,99911.13
2023-04-22T19:27:12.649Z,99911.34
2023-04-22T19:29:43.247Z,99905.25
2023-04-22T19:32:10.999Z,99909.09
2023-04-22T19:34:38.644Z,99918.97
2023-04-22T19:37:06.052Z,99910.28
2023-04-22T19:39:33.349Z,99901.47
2023-04-22T19:42:03.765Z,99909.63
2023-04-22T19:44:31.336Z,99885.13
2023-04-22T19:46:58.687Z,99907.41
2023-04-22T19:49:26.534Z,99892.81
2023-04-22T19:51:53.800Z,99908.56
2023-04-22T19:54:21.726Z,99903.25
2023-04-22T19:56:49.257Z,99888.69
2023-04-22T19:59:16.687Z,99902.66
2023-04-22T20:01:44.160Z,99908.31
2023-04-22T20:04:11.828Z,99906.53
2023-04-22T20:06:39.178Z,99901.38
2023-04-22T20:09:06.400Z,99896.94
2023-04-22T20:11:33.762Z,99910.78
2023-04-22T20:14:01.089Z,99905.78
2023-04-22T20:16:28.723Z,99907.34
2023-04-22T20:18:56.098Z,99902.00
2023-04-22T20:21:23.451Z,99898.53
2023-04-22T20:23:51.495Z,99906.19
2023-04-22T20:26:19.942Z,99907.59
2023-04-22T20:28:48.889Z,99909.00
2023-04-22T20:31:18.638Z,99904.66
2023-04-22T20:33:46.647Z,99899.53
2023-04-22T20:36:16.732Z,99901.00
2023-04-22T20:38:47.374Z,99898.13
2023-04-22T20:41:15.387Z,99899.88
2023-04-22T20:43:42.646Z,99900.75
2023-04-22T20:46:10.052Z,99907.63
2023-04-22T20:48:37.371Z,99909.13
2023-04-22T20:51:04.773Z,99904.16
2023-04-22T20:53:32.078Z,99905.63
2023-04-22T20:55:59.350Z,99899.53
2023-04-22T20:58:28.027Z,99905.63
2023-04-22T21:00:55.756Z,99905.63
2023-04-22T21:03:23.775Z,99904.09
2023-04-22T21:05:52.319Z,99906.44
2023-04-22T21:08:24.065Z,99908.00
2023-04-22T21:10:52.741Z,99915.06
2023-04-22T21:13:20.172Z,99901.78
2023-04-22T21:16:08.036Z,99909.91
2023-04-22T21:18:35.697Z,99912.81
2023-04-22T21:21:03.904Z,99923.78
2023-04-22T21:23:31.493Z,99923.78
2023-04-22T21:26:01.132Z,99909.13
2023-04-22T21:28:28.985Z,99927.53
2023-04-22T21:30:56.590Z,99930.75
2023-04-22T21:33:25.348Z,99932.56
2023-04-22T21:35:52.806Z,99920.63
2023-04-22T21:38:20.147Z,99935.00
2023-04-22T21:40:50.463Z,99939.63
2023-04-22T21:43:17.819Z,99932.84
2023-04-22T21:45:45.185Z,99940.34
2023-04-22T21:48:12.622Z,99929.72
2023-04-22T21:50:39.965Z,99934.25
2023-04-22T21:53:07.451Z,99919.84
2023-04-22T21:55:34.743Z,99932.31
2023-04-22T21:58:02.029Z,99919.94
2023-04-22T22:00:29.340Z,99924.53
2023-04-22T22:02:56.664Z,99929.00
2023-04-22T22:05:24.020Z,99923.31
2023-04-22T22:07:52.987Z,99938.25
2023-04-22T22:10:20.273Z,99930.50
2023-04-22T22:12:48.234Z,99946.47
2023-04-22T22:15:18.684Z,99935.03
2023-04-22T22:17:46.090Z,99936.63
2023-04-22T22:20:16.799Z,99938.28
2023-04-22T22:22:44.296Z,99936.28
2023-04-22T22:25:12.648Z,99941.50
2023-04-22T22:27:47.351Z,99922.13
2023-04-22T22:30:18.842Z,99943.91
2023-04-22T22:32:46.391Z,99917.31
2023-04-22T22:35:13.955Z,99948.97
2023-04-22T22:37:41.340Z,99933.34
2023-04-22T22:40:09.180Z,99946.69
2023-04-22T22:42:36.541Z,99947.84
2023-04-22T22:45:05.295Z,99945.56
2023-04-22T22:47:32.995Z,99947.94
2023-04-22T22:50:00.628Z,99939.91
2023-04-22T22:52:28.065Z,99936.44
2023-04-22T22:54:55.409Z,99950.38
2023-04-22T22:57:22.630Z,99947.16
2023-04-22T22:59:49.891Z,99946.47
2023-04-22T23:02:17.497Z,99939.75
2023-04-22T23:04:45.347Z,99940.88
2023-04-22T23:07:14.685Z,99952.75
2023-04-22T23:09:42.412Z,99930.16
2023-04-22T23:12:09.695Z,99938.59
2023-04-22T23:14:36.979Z,99941.47
2023-04-22T23:17:04.473Z,99940.72
2023-04-22T23:19:32.003Z,99945.59
2023-04-22T23:21:59.296Z,99935.38
2023-04-22T23:24:26.807Z,99937.47
2023-04-22T23:26:54.270Z,99939.72
2023-04-22T23:29:21.976Z,99937.84
2023-04-22T23:31:49.252Z,99940.97
2023-04-22T23:34:16.581Z,99931.53
2023-04-22T23:36:43.875Z,99934.00
2023-04-22T23:39:11.171Z,99936.97
2023-04-22T23:41:38.417Z,99931.91
2023-04-22T23:44:06.477Z,99928.69
2023-04-22T23:46:33.857Z,99930.00
2023-04-22T23:49:01.507Z,99935.94
2023-04-22T23:51:29.853Z,99934.91
2023-04-22T23:53:57.206Z,99914.34
2023-04-22T23:56:24.776Z,99929.88
2023-04-22T23:58:52.324Z,99933.03
